Flight Track Log - Related Links

Times and Time Zones

All times are in EDT time to prevent confusion due to time zone crossing. See the SKW4664 flight status page for this flight to view local times or setup timezone preferences in your user account.

Time Position Orientation Groundspeed Altitude Reporting Facility
EDT Latitude Longitude Course Direction KTS MPH feet Rate Location/Type
Tue 09:10:25 PM 41.9667 -88.0000 246° West 196 226 3,400  Level Chicago TRACON
Tue 09:11:19 PM 41.9614 -88.0753 265° West 220 253 5,000 1,930 Climbing Chicago Center
Tue 09:12:00 PM 41.9415 -88.3284 264° West  Level FlightAware Approximate
Tue 09:12:20 PM 41.9594 -88.1644 268° West 236 272 7,100  Level Chicago Center
Tue 09:13:00 PM 41.9306 -88.4715 265° West  Level FlightAware Approximate
Tue 09:13:22 PM 41.9578 -88.2628 269° West 259 298 10,200  Level Chicago Center
Tue 09:14:00 PM 41.9204 -88.6145 265° West  Level FlightAware Approximate
Tue 09:14:24 PM 41.9506 -88.3711 265° West 269 310 12,600  Level Chicago Center
Tue 09:15:00 PM 41.9092 -88.7559 246° West  Level FlightAware Approximate
Tue 09:15:25 PM 41.9408 -88.4794 263° West 289 333 14,400  Level Chicago Center
Tue 09:16:27 PM 41.9303 -88.5989 263° West 320 368 16,600 2,244 Climbing Chicago Center
Tue 09:17:28 PM 41.9200 -88.7200 264° West 328 377 19,000 2,293 Climbing Chicago Center
Tue 09:18:30 PM 41.9103 -88.8489 264° West 342 394 21,300 1,984 Climbing Chicago Center
Tue 09:19:32 PM 41.9075 -88.9814 268° West 352 405 23,100 1,756 Climbing Chicago Center
Tue 09:20:33 PM 41.9039 -89.1194 268° West 364 419 24,900 1,951 Climbing Chicago Center
Tue 09:21:35 PM 41.8928 -89.2900 265° West 383 441 27,100 1,790 Climbing Chicago Center
Tue 09:22:37 PM 41.8786 -89.4322 262° West 385 443 28,600 1,463 Climbing Chicago Center
Tue 09:23:38 PM 41.8644 -89.5756 262° West 388 447 30,100 1,366 Climbing Chicago Center
Tue 09:24:40 PM 41.8500 -89.7228 263° West 395 455 31,400 1,171 Climbing Chicago Center
Tue 09:25:41 PM 41.8344 -89.8722 262° West 406 467 32,500 829 Climbing Chicago Center
Tue 09:26:43 PM 41.8197 -90.0214 263° West 415 478 33,100 732 Climbing Chicago Center
Tue 09:27:44 PM 41.8003 -90.2125 262° West 431 496 34,000 439 Climbing Chicago Center
Tue 09:28:46 PM 41.7808 -90.3742 261° West 457 526 34,000  Level Chicago Center
Tue 09:29:47 PM 41.7633 -90.5414 262° West 457 526 34,000  Level Chicago Center
Tue 09:30:49 PM 41.7439 -90.7192 262° West 459 528 34,000  Level Chicago Center
Tue 09:31:50 PM 41.7239 -90.8919 261° West 464 534 34,000  Level Chicago Center
Tue 09:32:52 PM 41.7044 -91.0664 262° West 472 543 34,000  Level Chicago Center
Tue 09:33:53 PM 41.6847 -91.2372 261° West 470 541 34,000  Level Chicago Center
Tue 09:34:55 PM 41.6719 -91.4069 264° West 464 534 34,000  Level Chicago Center
Tue 09:35:56 PM 41.6678 -91.6103 268° West 461 531 34,000  Level Chicago Center
Tue 09:36:58 PM 41.6628 -91.7819 268° West 461 531 34,000  Level Chicago Center
Tue 09:37:59 PM 41.6578 -91.9531 268° West 461 531 34,000  Level Chicago Center
Tue 09:39:01 PM 41.6525 -92.1239 268° West 461 531 34,000  Level Chicago Center
Tue 09:40:03 PM 41.6478 -92.2928 268° West 460 529 34,000  Level Chicago Center
Tue 09:41:04 PM 41.6419 -92.4650 267° West 463 533 34,000  Level Chicago Center
Tue 09:42:06 PM 41.6367 -92.6347 268° West 463 533 34,000  Level Chicago Center
Tue 09:42:49 PM 41.6314 -92.7578 267° West 461 531 34,000  Level Minneapolis Center
Tue 09:43:51 PM 41.6239 -92.9600 267° West 461 531 34,000  Level Minneapolis Center
Tue 09:44:53 PM 41.6178 -93.1292 267° West 461 531 34,000  Level Minneapolis Center
Tue 09:45:54 PM 41.6103 -93.2994 267° West 461 531 34,000  Level Minneapolis Center
Tue 09:46:56 PM 41.6033 -93.4703 267° West 462 532 34,000  Level Minneapolis Center
Tue 09:47:57 PM 41.5961 -93.6397 267° West 462 532 34,000  Level Minneapolis Center
Tue 09:48:59 PM 41.5886 -93.8089 267° West 462 532 34,000  Level Minneapolis Center
Tue 09:50:01 PM 41.5792 -94.0119 267° West 462 532 34,000  Level Minneapolis Center
Tue 09:51:02 PM 41.5719 -94.1808 267° West 462 532 34,000  Level Minneapolis Center
Tue 09:52:04 PM 41.5628 -94.3464 266° West 462 532 34,000  Level Minneapolis Center
Tue 09:53:05 PM 41.5547 -94.5161 266° West 462 532 34,000  Level Minneapolis Center
Tue 09:54:07 PM 41.5450 -94.6883 266° West 463 533 34,000  Level Minneapolis Center
Tue 09:55:08 PM 41.5381 -94.8586 267° West 462 532 34,000  Level Minneapolis Center
Tue 09:56:10 PM 41.5258 -95.0636 266° West 462 532 34,000  Level Minneapolis Center
Tue 09:57:11 PM 41.5161 -95.2336 266° West 462 532 34,000  Level Minneapolis Center
Tue 09:58:13 PM 41.5067 -95.4053 266° West 463 533 34,000  Level Minneapolis Center
Tue 09:59:14 PM 41.4956 -95.5772 265° West 464 534 34,000  Level Minneapolis Center
Tue 10:00:16 PM 41.4842 -95.7636 265° West 465 535 34,000  Level Minneapolis Center
Tue 10:01:17 PM 41.4733 -95.9369 265° West 466 536 34,000  Level Minneapolis Center
Tue 10:02:19 PM 41.4628 -96.1094 265° West 467 537 34,000  Level Minneapolis Center
Tue 10:03:20 PM 41.4506 -96.2839 265° West 468 539 34,000  Level Minneapolis Center
Tue 10:04:22 PM 41.4394 -96.4644 265° West 471 542 34,000  Level Minneapolis Center
Tue 10:05:23 PM 41.4267 -96.6378 264° West 471 542 34,000  Level Minneapolis Center
Tue 10:06:24 PM 41.4139 -96.8128 264° West 474 545 34,000  Level Minneapolis Center
Tue 10:07:26 PM 41.4019 -96.9869 265° West 474 545 34,000  Level Minneapolis Center
Tue 10:08:27 PM 41.3897 -97.1619 265° West 474 545 34,000  Level Minneapolis Center
Tue 10:09:28 PM 41.3758 -97.3375 264° West 474 545 34,000  Level Minneapolis Center
Tue 10:10:30 PM 41.3608 -97.5475 265° West 475 547 34,000  Level Minneapolis Center
Tue 10:11:31 PM 41.3458 -97.7222 264° West 475 547 34,000  Level Minneapolis Center
Tue 10:12:32 PM 41.3325 -97.8964 264° West 475 547 34,000  Level Minneapolis Center
Tue 10:13:33 PM 41.3181 -98.0708 264° West 475 547 34,000  Level Minneapolis Center
Tue 10:14:35 PM 41.3036 -98.2406 264° West 474 545 34,000  Level Minneapolis Center
Tue 10:15:36 PM 41.2894 -98.4103 264° West 469 540 34,000  Level Minneapolis Center
Tue 10:16:37 PM 41.2744 -98.5839 263° West 468 539 34,000  Level Minneapolis Center
Tue 10:17:38 PM 41.2600 -98.7528 264° West 464 534 34,000  Level Minneapolis Center
Tue 10:18:40 PM 41.2447 -98.9200 263° West 462 532 34,000  Level Minneapolis Center
Tue 10:19:41 PM 41.2294 -99.0883 263° West 462 532 34,000  Level Minneapolis Center
Tue 10:20:42 PM 41.2125 -99.2733 263° West 461 531 34,000  Level Minneapolis Center
Tue 10:21:43 PM 41.1972 -99.4414 263° West 461 531 34,000  Level Minneapolis Center
Tue 10:22:45 PM 41.1808 -99.6083 263° West 461 531 34,000  Level Minneapolis Center
Tue 10:23:46 PM 41.1650 -99.7767 263° West 460 529 34,000  Level Minneapolis Center
Tue 10:24:47 PM 41.1489 -99.9458 263° West 460 529 34,000  Level Minneapolis Center
Tue 10:25:48 PM 41.1286 -100.1506 263° West 463 533 34,000  Level Minneapolis Center
Tue 10:26:49 PM 41.1106 -100.3211 262° West 464 534 34,000  Level Minneapolis Center
Tue 10:27:51 PM 41.0939 -100.4908 263° West 464 534 34,000  Level Minneapolis Center
Tue 10:28:52 PM 41.0756 -100.6608 262° West 464 534 34,000  Level Minneapolis Center
Tue 10:30:11 PM 41.0519 -100.8758 262° West 466 536 34,000  Level Denver Center
Tue 10:31:12 PM 41.0311 -101.0625 262° West 465 535 34,000  Level Denver Center
Tue 10:32:13 PM 41.0136 -101.2231 262° West 465 535 34,000  Level Denver Center
Tue 10:33:15 PM 40.9961 -101.3842 262° West 464 534 34,000  Level Denver Center
Tue 10:34:16 PM 40.9739 -101.5731 261° West 465 535 34,000  Level Denver Center
Tue 10:35:18 PM 40.9564 -101.7350 262° West 465 535 34,000  Level Denver Center
Tue 10:36:19 PM 40.9336 -101.9250 261° West 466 536 34,000  Level Denver Center
Tue 10:37:21 PM 40.9156 -102.0869 262° West 467 537 34,000  Level Denver Center
Tue 10:38:22 PM 40.8922 -102.2758 261° West 467 537 34,000  Level Denver Center
Tue 10:39:23 PM 40.8719 -102.4383 261° West 469 540 34,000  Level Denver Center
Tue 10:40:25 PM 40.8517 -102.6017 261° West 471 542 34,000  Level Denver Center
Tue 10:41:26 PM 40.8286 -102.7933 261° West 471 542 34,000  Level Denver Center
Tue 10:42:28 PM 40.8078 -102.9572 261° West 472 543 34,000  Level Denver Center
Tue 10:43:29 PM 40.7858 -103.1319 261° West 477 549 34,000  Level Denver Center
Tue 10:44:30 PM 40.7639 -103.3028 260° West 477 549 34,000  Level Denver Center
Tue 10:45:32 PM 40.7411 -103.4758 260° West 478 550 34,000  Level Denver Center
Tue 10:46:33 PM 40.7181 -103.6481 260° West 479 551 34,000  Level Denver Center
Tue 10:47:34 PM 40.6914 -103.8553 260° West 479 551 34,000  Level Denver Center
Tue 10:48:36 PM 40.6675 -104.0286 260° West 481 554 34,000  Level Denver Center
Tue 10:49:37 PM 40.6433 -104.2022 260° West 482 555 34,000  Level Denver Center
Tue 10:50:38 PM 40.6203 -104.3761 260° West 484 557 34,000  Level Denver Center
Tue 10:51:40 PM 40.5950 -104.5497 259° West 484 557 34,000  Level Denver Center
Tue 10:52:41 PM 40.5711 -104.7256 260° West 486 559 34,000  Level Denver Center
Tue 10:53:42 PM 40.5458 -104.9003 259° West 487 560 34,000  Level Denver Center
Tue 10:54:44 PM 40.5158 -105.1089 259° West 488 562 34,000  Level Denver Center
Tue 10:55:45 PM 40.4894 -105.2825 259° West 488 562 34,000  Level Denver Center
Tue 10:56:46 PM 40.4633 -105.4567 259° West 488 562 34,000  Level Denver Center
Tue 10:57:47 PM 40.4378 -105.6303 259° West 488 562 34,000  Level Denver Center
Tue 10:58:48 PM 40.4111 -105.8025 259° West 488 562 34,000  Level Denver Center
Tue 10:59:51 PM 40.3850 -105.9756 259° West 488 562 34,000  Level Denver Center
Tue 11:00:52 PM 40.3553 -106.1689 259° West 488 562 34,000  Level Denver Center
Tue 11:01:53 PM 40.3286 -106.3367 258° West 490 564 34,000  Level Denver Center
Tue 11:02:54 PM 40.2986 -106.5272 258° West 491 565 34,000  Level Denver Center
Tue 11:03:55 PM 40.2711 -106.7017 258° West 491 565 34,000  Level Denver Center
Tue 11:04:57 PM 40.2444 -106.8686 258° West 491 565 34,000  Level Denver Center
Tue 11:05:58 PM 40.2128 -107.0625 258° West 491 565 34,000  Level Denver Center
Tue 11:06:59 PM 40.1861 -107.2292 258° West 491 565 34,000  Level Denver Center
Tue 11:09:01 PM 40.1261 -107.5833 258° West 485 558 34,000  Level Denver Center
Tue 11:10:02 PM 40.0989 -107.7456 258° West 481 554 34,000  Level Denver Center
Tue 11:11:04 PM 40.0697 -107.9331 259° West 478 550 34,000  Level Denver Center
Tue 11:12:05 PM 40.0767 -108.0928 273° West 465 535 34,000  Level Denver Center
Tue 11:13:06 PM 40.0831 -108.2525 273° West 462 532 34,000  Level Denver Center
Tue 11:14:07 PM 40.0911 -108.4361 273° West 458 527 34,000  Level Denver Center
Tue 11:15:08 PM 40.0967 -108.5936 273° West 458 527 34,000  Level Denver Center
Tue 11:16:09 PM 40.1042 -108.7750 273° West 451 519 34,000  Level Denver Center
Tue 11:17:10 PM 40.1100 -108.9281 273° West 448 516 34,000  Level Denver Center
Tue 11:18:11 PM 40.1153 -109.0819 273° West 446 513 34,000  Level Denver Center
Tue 11:19:12 PM 40.1222 -109.2600 273° West 444 511 34,000  Level Denver Center
Tue 11:20:09 PM 40.1261 -109.4117 272° West 444 511 34,000  Level Salt Lake Center
Tue 11:21:10 PM 40.1317 -109.5636 273° West 441 507 34,000  Level Salt Lake Center
Tue 11:22:12 PM 40.1372 -109.7386 272° West 438 504 34,000 -293 Level Salt Lake Center
Tue 11:23:13 PM 40.1414 -109.8894 272° West 434 499 33,400 -787 Descending Salt Lake Center
Tue 11:24:14 PM 40.1461 -110.0467 272° West 449 517 32,400 -1,033 Descending Salt Lake Center
Tue 11:25:15 PM 40.1489 -110.2342 271° West 457 526 31,300 -1,033 Descending Salt Lake Center
Tue 11:26:16 PM 40.1461 -110.3969 269° West 465 535 30,300 -639 Descending Salt Lake Center
Tue 11:27:17 PM 40.1450 -110.5531 270° West 454 522 30,000 -148 Descending Salt Lake Center
Tue 11:28:18 PM 40.1428 -110.7242 269° West 424 488 30,000 -98 Level Salt Lake Center
Tue 11:29:19 PM 40.1419 -110.8633 270° West 407 468 29,800 -1,672 Descending Salt Lake Center
Tue 11:30:20 PM 40.1403 -111.0172 269° West 401 461 26,600 -3,049 Descending Salt Lake Center
Tue 11:31:21 PM 40.1386 -111.1614 269° West 400 460 23,600 -2,951 Descending Salt Lake Center
Tue 11:32:22 PM 40.1344 -111.3044 268° West 397 457 20,600 -2,705 Descending Salt Lake Center
Tue 11:33:23 PM 40.1319 -111.4431 269° West 387 445 18,100 -2,213 Descending Salt Lake Center
Tue 11:34:24 PM 40.1414 -111.5733 275° West 359 413 16,100 -1,644 Descending Salt Lake Center
Tue 11:34:36 PM 40.1511 -111.6192 286° West 345 397 16,100  Level Salt Lake Center
Tue 11:35:25 PM 40.1847 -111.6881 303° West 351 404 16,100 -90 Level Salt Lake Center
Tue 11:35:43 PM 40.2097 -111.7283 309° West 322 371 16,000 -689 Descending Salt Lake Center
Tue 11:36:26 PM 40.2450 -111.7719 317° Northwest 317 365 15,400 -1,500 Descending Salt Lake Center
Tue 11:36:43 PM 40.2669 -111.8100 307° West 299 344 14,500 -1,967 Descending Salt Lake Center
Tue 11:37:27 PM 40.3033 -111.8444 324° Northwest 293 337 13,400 -1,964 Descending Salt Lake Center
Tue 11:37:38 PM 40.3244 -111.8719 315° West 300 345 12,700 -1,770 Descending Salt Lake Center
Tue 11:38:28 PM 40.3672 -111.9083 327° Northwest 286 329 11,600 -1,600 Descending Salt Lake Center
Tue 11:38:38 PM 40.3850 -111.9275 321° Northwest 281 323 11,100 -885 Descending Salt Lake Center
Tue 11:39:29 PM 40.4353 -111.9356 353° North 250 288 10,700 -787 Descending Salt Lake Center
Tue 11:39:39 PM 40.4550 -111.9433 343° North 225 259 10,300 -1,268 Descending Salt Lake Center
Tue 11:40:40 PM 40.5181 -111.9472 357° North 229 264 9,200 -1,140 Descending Salt Lake Center
Tue 11:41:40 PM 40.5844 -111.9558 354° North 239 275 8,000 -1,190 Descending Salt Lake Center
Tue 11:42:41 PM 40.6436 -111.9611 356° North 199 229 6,800 -1,062 Descending Salt Lake Center
Tue 11:43:33 PM 40.6858 -111.9619 359° North 180 207 6,000 -796 Descending Salt Lake Center
Tue 11:44:34 PM 40.7222 -111.9667 354° North 135 155 5,300 -639 Descending Salt Lake Center
Tue 11:45:35 PM 40.7544 -111.9708 354° North 121 139 4,700 -492 Descending Salt Lake Center
Tue 11:46:36 PM 40.7875 -111.9750 355° North 121 139 4,300 -393 Descending Salt Lake Center

Login

Don't have an account? Register now (free) for customized features, flight alerts, and more!